createdAt,value
2022-10-26T00:44:58.555Z,65233.63
2022-10-26T00:47:40.911Z,65233.63
2022-10-26T00:52:52.341Z,65233.63
2022-10-26T00:55:31.543Z,65233.63
2022-10-26T00:58:10.251Z,65233.63
2022-10-26T01:00:45.004Z,65233.63
2022-10-26T01:03:19.202Z,65233.63
2022-10-26T01:05:58.508Z,65233.63
2022-10-26T01:08:32.510Z,65233.63
2022-10-26T01:11:08.147Z,65233.63
2022-10-26T01:13:43.094Z,65233.63
2022-10-26T01:16:45.987Z,65233.63
2022-10-26T01:22:08.405Z,65233.63
2022-10-26T01:25:00.358Z,65233.63
2022-10-26T01:27:37.820Z,65233.63
2022-10-26T01:30:28.525Z,65233.63
2022-10-26T01:33:27.720Z,65233.63
2022-10-26T01:36:14.780Z,65233.63
2022-10-26T01:38:56.767Z,65233.63
2022-10-26T01:41:34.004Z,65233.63
2022-10-26T12:20:40.545Z,99471.13
2022-10-26T12:23:23.121Z,99484.22
2022-10-26T12:28:43.522Z,99504.16
2022-10-26T12:31:49.710Z,99500.34
2022-10-26T12:34:25.717Z,99497.44
2022-10-26T12:37:25.218Z,99492.56
2022-10-26T12:40:36.580Z,99490.97
2022-10-26T12:43:38.713Z,99503.28
2022-10-26T12:46:45.097Z,99505.31
2022-10-26T12:50:00.873Z,99504.28
2022-10-26T12:52:44.895Z,99507.06
2022-10-26T12:56:05.339Z,99506.09
2022-10-26T12:58:46.140Z,99512.47
2022-10-26T13:01:36.202Z,99534.94
2022-10-26T13:04:27.304Z,99516.09
2022-10-26T13:07:18.276Z,99519.72
2022-10-26T13:09:58.353Z,99526.94
2022-10-26T13:12:40.768Z,99528.94
2022-10-26T13:15:23.713Z,99526.38
2022-10-26T13:18:03.492Z,99529.47
2022-10-26T13:20:52.654Z,99550.28
2022-10-26T13:23:28.246Z,65233.63
2022-10-26T13:26:07.833Z,65233.63
2022-10-26T13:28:50.160Z,65233.63
2022-10-26T13:31:55.673Z,65233.63
2022-10-26T14:06:53.455Z,65233.63
2022-10-26T14:09:31.600Z,65233.63
2022-10-26T14:12:04.909Z,65233.63
2022-10-26T14:14:40.307Z,65233.63
2022-10-26T14:17:21.115Z,65233.63
2022-10-26T14:19:55.756Z,65233.63
2022-10-26T14:22:31.099Z,65233.63
2022-10-26T14:25:06.051Z,65233.63
2022-10-26T14:27:40.683Z,65233.63
2022-10-26T14:30:25.614Z,65233.63
2022-10-26T14:32:59.079Z,65233.63
2022-10-26T14:35:37.058Z,65233.63
2022-10-26T14:38:20.134Z,65233.63
2022-10-26T14:48:37.005Z,65233.63
2022-10-26T14:51:16.863Z,65233.63
2022-10-26T14:53:51.929Z,65233.63
2022-10-26T14:56:31.457Z,65233.63
2022-10-26T14:59:13.152Z,65233.63
2022-10-26T15:01:52.136Z,65233.63
2022-10-26T15:04:34.790Z,65233.63
2022-10-26T15:07:18.461Z,65233.63
2022-10-26T15:09:52.210Z,65233.63
2022-10-26T15:12:32.897Z,65233.63
2022-10-26T17:34:56.518Z,121050.44
2022-10-26T17:40:09.945Z,65233.63
2022-10-26T17:42:44.231Z,65233.63
2022-10-26T17:45:18.127Z,65233.63
2022-10-26T17:47:54.325Z,65233.63
2022-10-26T17:50:28.375Z,65233.63
2022-10-26T17:58:08.895Z,65233.63
2022-10-26T18:00:45.607Z,65233.63
